WEATHER DATA

YESTERDAY
Time Temp. Dewp. Hum. Wind dir Wind speed Wind gust Bar. 1h Prec. 24h Prec.
00:09 14.4 12.1 86 186 0.8 1.7 1021.6 0.0000 0.0000
00:19 14.4 12.1 86 164 0.3 1.1 1021.6 0.0000 0.0000
00:29 14.4 12.3 87 185 0.3 1.7 1021.7 0.0000 0.0000
00:40 14.4 12.3 87 182 0.8 1.7 1021.8 0.0000 0.0000
00:49 14.4 12.1 86 180 0.3 1.4 1021.8 0.0000 0.0000
00:59 14.4 12.1 86 161 0.3 1.1 1021.8 0.0000 0.0000
01:09 14.4 12.1 86 199 0.3 2.2 1021.8 0.0000 0.0000
01:30 14.5 12.2 86 198 1.1 1.7 1021.7 0.0000 0.0000
01:39 14.6 12.3 86 196 0.8 2.5 1021.5 0.0000 0.0000
01:50 14.6 12.3 86 154 1.1 2.5 1021.4 0.0000 0.0000
02:00 14.6 12.3 86 90 0.3 1.1 1021.4 0.0000 0.0000
02:10 14.6 12.3 86 29 0.3 1.4 1021.4 0.0000 0.0000
02:20 14.5 12.2 86 45 0.3 0.8 1021.4 0.0000 0.0000
02:30 14.4 12.1 86 0 0.8 1021.3 0.0000 0.0000
02:40 14.2 11.7 85 328 0.8 1.4 1021.3 0.0000 0.0000
02:50 13.9 11.4 85 329 0.8 1.4 1021.3 0.0000 0.0000
03:01 13.7 11.2 85 0 0.8 1021.4 0.0000 0.0000
03:10 13.5 11 85 0 0.3 1021.3 0.0000 0.0000
03:20 13.3 11 86 0 0.8 1021.1 0.0000 0.0000
03:30 13.1 10.8 86 145 0.3 1.7 1021.2 0.0000 0.0000
03:41 13 10.9 87 183 0.3 1.4 1021.2 0.0000 0.0000
03:51 12.9 11 88 196 0.8 2.2 1021.2 0.0000 0.0000
04:00 13 11.1 88 189 0.8 1.7 1021.2 0.0000 0.0000
04:11 13.1 11.3 89 195 0.8 3.1 1021 0.0000 0.0000
04:21 13.2 11.4 89 200 0.8 2.2 1021 0.0000 0.0000
04:31 13.3 11.4 88 199 1.4 2.8 1020.9 0.0000 0.0000
04:41 13.4 11.5 88 210 1.1 2.5 1021.1 0.0000 0.0000
04:51 13.5 11.7 89 190 0.8 1.4 1021 0.0000 0.0000
05:01 13.5 11.7 89 195 1.1 2.5 1021.2 0.0000 0.0000
05:11 13.7 11.9 89 205 0.3 1.7 1021.2 0.0000 0.0000
05:22 13.7 11.9 89 194 0.3 1.7 1021.2 0.0000 0.0000
05:32 13.8 12 89 204 0.8 1.7 1021.2 0.0000 0.0000
05:41 13.9 12.1 89 135 0.3 1.1 1021.2 0.0000 0.0000
05:51 13.9 12.1 89 188 0.3 1.4 1021.4 0.0000 0.0000
06:02 14 12.2 89 90 0.3 1.1 1021.4 0.0000 0.0000
06:12 14 12.2 89 161 0.3 1.4 1021.5 0.0000 0.0000
06:22 14 12.2 89 90 0.3 1.1 1021.5 0.0000 0.0000
06:32 13.9 11.9 88 170 0.8 1.4 1021.6 0.0000 0.0000
06:42 13.9 11.9 88 183 0.3 1.1 1021.6 0.0000 0.0000
06:52 13.8 11.7 87 0 0.8 1021.6 0.0000 0.0000
07:02 13.8 11.7 87 0 0.8 1021.6 0.0000 0.0000
07:12 13.7 11.6 87 197 1.1 2.2 1021.8 0.0000 0.0000
07:22 13.7 11.6 87 210 1.1 2.2 1021.8 0.0000 0.0000
07:32 13.8 11.8 88 206 1.4 2.5 1021.9 0.0000 0.0000
07:43 13.8 11.8 88 201 1.1 2.5 1021.9 0.0000 0.0000
07:53 13.9 11.9 88 158 0.3 1.7 1022 0.0000 0.0000
08:02 14 12 88 171 0.3 1.4 1022.1 0.0000 0.0000
08:12 14.1 12.1 88 165 0.8 2.5 1022.2 0.0000 0.0000
08:23 14.2 12.2 88 90 0.3 1.4 1022.3 0.0000 0.0000
08:33 14.3 12.5 89 345 1.4 2.8 1022.1 0.0000 0.0000
08:43 14.3 12.5 89 333 1.1 2.2 1022.2 0.0000 0.0000
08:53 14.3 12.5 89 0 0.8 1022.4 0.0000 0.0000
09:03 14.3 12.7 90 342 0.8 2.2 1022.4 0.0000 0.0000
09:13 14.3 12.7 90 124 0.8 2.2 1022.6 0.0000 0.0000
09:23 14.3 12.7 90 123 0.3 1.4 1022.6 0.0000 0.0000
09:34 14.3 12.9 91 90 0.3 1.1 1022.5 0.0000 0.0000
09:43 14.3 12.9 91 0 0.8 1022.6 0.1010 0.1000
10:00 14.3 12.9 91 90 0.3 0.8 1022.5 0.1010 0.1000
10:10 14.4 13 91 90 0.3 1.4 1022.5 0.2020 0.2000
10:21 14.4 13 91 90 0.3 1.1 1022.5 0.2020 0.2000
10:30 14.4 13 91 122 0.3 1.1 1022.4 0.2020 0.2000
10:40 14.5 13.2 92 90 0.3 0.8 1022.4 0.1010 0.2000
10:51 14.6 13.3 92 0 0.8 1022.3 0.1010 0.2000
11:01 14.6 13.3 92 90 0.3 1.1 1022.1 0.1010 0.2000
11:11 14.7 13.4 92 0 0.3 1022 0.0000 0.2000
11:20 14.8 13.5 92 0 0.8 1022.1 0.0000 0.2000
11:31 14.9 13.6 92 203 0.8 2.2 1022.1 0.0000 0.2000
11:41 15 13.7 92 207 1.1 2.5 1022 0.0000 0.2000
11:51 15 13.7 92 222 0.8 2.5 1022 0.0000 0.2000
12:01 15.1 13.8 92 191 0.3 1.7 1021.7 0.0000 0.2000
12:11 15.1 13.8 92 201 1.4 2.8 1021.7 0.0000 0.2000
12:21 15.2 13.9 92 218 1.1 3.6 1021.7 0.0000 0.2000
12:31 15.2 13.9 92 90 0.3 1.1 1021.6 0.0000 0.2000
12:42 15.2 13.9 92 90 0.3 1.1 1021.5 0.0000 0.2000
12:52 15.3 14 92 202 0.8 2.2 1021.4 0.0000 0.2000
13:01 15.3 14 92 199 0.8 1.4 1021.5 0.0000 0.2000
13:11 15.4 14.1 92 0 0.8 1021.4 0.0000 0.2000
13:22 15.5 14.2 92 90 0.3 0.8 1021.3 0.0000 0.2000
13:32 15.6 14.3 92 141 0.3 1.1 1021.3 0.0000 0.2000
13:42 15.6 14.3 92 0 0.8 1021.2 0.0000 0.2000
13:52 15.7 14.4 92 2 1.1 3.1 1021.1 0.0000 0.2000
14:02 15.7 14.2 91 342 1.4 2.8 1021 0.0000 0.2000
14:12 15.7 14.1 90 354 1.4 5 1021 0.0000 0.2000
14:22 15.7 13.7 88 0 1.4 3.1 1021 0.0000 0.2000
14:33 15.7 13.2 85 353 1.4 3.6 1021.1 0.0000 0.2000
14:42 15.7 13 84 45 0.3 1.1 1021 0.0000 0.2000
14:52 15.7 13 84 90 0.3 1.4 1021.1 0.0000 0.2000
15:03 15.7 13 84 45 0.3 1.4 1021.1 0.0000 0.2000
15:13 15.8 13.1 84 6 0.3 1.7 1021.1 0.0000 0.2000
15:29 15.9 13.2 84 345 1.1 5 1021.2 0.0000 0.2000
15:39 16 12.6 80 4 1.1 2.8 1021.2 0.0000 0.2000
15:50 16 12.2 78 350 1.4 3.1 1021.2 0.0000 0.2000
16:00 16 11.8 76 349 1.4 3.6 1021.2 0.0000 0.2000
16:09 16 11.8 76 358 0.8 2.2 1021.2 0.0000 0.2000
16:30 15.9 12.1 78 140 0.3 1.1 1021.2 0.0000 0.2000
16:40 15.8 12 78 0 1.1 1021.1 0.0000 0.2000
16:50 15.7 12.1 79 52 0.3 1.4 1021.2 0.0000 0.2000
17:00 15.6 11.8 78 90 0.3 1.7 1021.3 0.0000 0.2000
17:10 15.5 11.5 77 90 0.3 1.4 1021.3 0.0000 0.2000
17:20 15.4 11.4 77 30 0.3 1.4 1021.4 0.0000 0.2000
17:30 15.3 11.3 77 90 0.3 1.4 1021.5 0.0000 0.2000
17:41 15.2 11.2 77 45 0.3 1.1 1021.5 0.0000 0.2000
17:50 15.1 11.1 77 191 0.8 1.7 1021.6 0.0000 0.2000
18:00 15 11 77 90 0.3 1.4 1021.6 0.0000 0.2000
18:11 14.9 10.9 77 315 0.3 1.4 1021.7 0.0000 0.2000
18:21 14.8 10.8 77 141 0.3 1.1 1021.9 0.0000 0.2000
18:31 14.8 10.8 77 129 0.3 1.4 1021.9 0.0000 0.2000
18:40 14.7 10.7 77 90 0.3 1.7 1021.9 0.0000 0.2000
18:51 14.6 10.4 76 113 0.8 1.7 1021.9 0.0000 0.2000
19:01 14.6 10.2 75 168 0.8 2.2 1022 0.0000 0.2000
19:11 14.5 9.9 74 114 0.8 1.7 1022 0.0000 0.2000
19:21 14.4 9.8 74 90 0.8 1.4 1022 0.0000 0.2000
19:31 14.4 9.8 74 124 0.8 1.7 1021.9 0.0000 0.2000
19:41 14.3 9.5 73 111 0.8 1.7 1021.8 0.0000 0.2000
19:51 14.3 9.3 72 121 0.8 2.2 1021.8 0.0000 0.2000
20:02 14.2 9.2 72 135 0.8 1.7 1021.9 0.0000 0.2000
20:12 14.1 9.1 72 132 1.1 2.5 1021.9 0.0000 0.2000
20:21 14 8.8 71 135 1.1 2.8 1021.9 0.0000 0.2000
20:32 14 8.8 71 90 0.8 2.8 1022 0.0000 0.2000
20:42 13.9 8.7 71 135 1.1 2.5 1022.1 0.0000 0.2000
20:52 13.8 8.8 72 129 0.8 1.7 1022.2 0.0000 0.2000
21:01 13.8 8.8 72 122 0.8 2.5 1022.2 0.0000 0.2000
21:12 13.7 8.7 72 113 0.8 2.2 1022.2 0.0000 0.2000
21:22 13.6 8.9 73 90 0.8 2.8 1022.2 0.0000 0.2000
21:32 13.6 8.9 73 122 0.8 2.5 1022.2 0.0000 0.2000
21:42 13.5 9 74 150 1.1 2.5 1022.2 0.0000 0.2000
21:52 13.5 9 74 135 1.1 4.2 1022.3 0.0000 0.2000
22:02 13.5 9.2 75 90 1.1 2.5 1022.3 0.0000 0.2000
22:12 13.5 9.2 75 73 1.1 3.1 1022.4 0.0000 0.2000
22:23 13.5 9.2 75 51 1.1 4.2 1022.6 0.0000 0.2000
22:32 13.5 9.4 76 352 1.7 8.1 1022.6 0.0000 0.2000
22:41 13.6 9.5 76 357 2.5 5.3 1022.7 0.0000 0.2000
22:52 13.6 9.5 76 352 2.8 6.9 1022.7 0.0000 0.2000
23:02 13.7 9.6 76 1 2.8 7.8 1022.7 0.0000 0.2000
23:12 13.7 9.6 76 345 2.5 6.4 1022.9 0.0000 0.2000
23:22 13.6 9.5 76 352 1.7 4.4 1022.9 0.0000 0.2000
23:32 13.6 9.5 76 355 1.7 5.8 1022.9 0.0000 0.2000
23:42 13.5 9.4 76 7 1.1 3.9 1022.9 0.0000 0.2000
23:52 13.5 9.6 77 26 1.1 3.6 1022.9 0.0000

DAY STATISTIC

2020-10-30
TEMPERATURE
AVERAGE
14.4
HIGH
16.0
15:39
LOW
12.9
03:51
PRESSURE
AVERAGE
1021.7
HIGH
1022.9
23:12
LOW
1020.9
04:31
DEWPOINT
AVERAGE
11.7
HIGH
14.4
13:52
LOW
8.7
20:42
HUMIDITY
AVERAGE
84
HIGH
92
10:40
LOW
71
20:21
WIND SPEED
AVERAGE
0.7
HIGH
2.8
22:52
WIND GUST
AVERAGE
2.1
HIGH
8.1
22:32
WIND DIRECTION
PREVAILING
S
25.2%
N
15.1
NE
6.5
E
18.0
SE
17.3
S
25.2
SW
5.0
W
0.0
NW
2.9
PRECIPITATION
RAIN HOUR
0.2
RAIN DAY
0.2
TEMPERATURE (°C)
LOW
12.9
HIGH
16.0
AVERAGE
14.4
PRESSURE (hpa)
LOW
1020.9
HIGH
1022.9
AVERAGE
1021.7
DEVICE